createdAt,value
2018-09-17T14:23:23.756Z,48.10
2018-09-17T14:25:54.211Z,42.90
2018-09-17T14:28:24.688Z,41.70
2018-09-17T14:30:54.771Z,44.50
2018-09-17T14:35:59.510Z,40.70
2018-09-17T14:40:59.266Z,42.40
2018-09-17T14:43:29.558Z,40.10
2018-09-17T14:45:59.814Z,41.80
2018-09-17T14:48:30.537Z,40.40
2018-09-17T14:51:00.757Z,41.30
2018-09-17T14:53:31.178Z,45.40
2018-09-17T14:56:01.407Z,41.40
2018-09-17T14:58:31.825Z,42.00
2018-09-17T15:01:02.262Z,42.80
2018-09-17T15:06:02.714Z,41.10
2018-09-17T15:08:33.169Z,41.70
2018-09-17T15:11:03.383Z,41.10
2018-09-17T15:13:33.852Z,40.10
2018-09-17T15:18:34.212Z,41.60
2018-09-17T15:21:04.415Z,42.40
2018-09-17T15:26:04.754Z,45.60
2018-09-17T15:28:35.137Z,46.20
2018-09-17T15:31:05.436Z,47.20
2018-09-17T15:33:35.802Z,45.80
2018-09-17T15:36:06.099Z,46.20
2018-09-17T15:38:36.567Z,45.10
2018-09-17T15:41:07.185Z,43.70
2018-09-17T15:43:37.559Z,43.30
2018-09-17T15:46:08.120Z,43.00
2018-09-17T15:48:38.521Z,42.50
2018-09-17T15:51:08.848Z,44.00
2018-09-17T15:53:39.458Z,42.10
2018-09-17T15:56:09.763Z,43.00
2018-09-17T15:58:40.140Z,46.10
2018-09-17T16:01:10.657Z,48.40
2018-09-17T16:03:41.127Z,51.00
2018-09-17T16:06:11.504Z,51.50
2018-09-17T16:08:41.955Z,50.80
2018-09-17T16:11:12.477Z,50.20
2018-09-17T16:13:42.593Z,50.40
2018-09-17T16:16:13.175Z,51.00
2018-09-17T16:18:43.624Z,52.00
2018-09-17T16:21:14.036Z,53.40
2018-09-17T16:26:14.264Z,55.00
2018-09-17T16:28:44.409Z,56.60
2018-09-17T16:31:14.748Z,59.20
2018-09-17T16:33:44.923Z,62.60
2018-09-17T16:36:15.072Z,65.50
2018-09-17T16:38:45.164Z,68.20
2018-09-17T16:41:15.659Z,71.00
2018-09-17T16:43:45.841Z,75.90
2018-09-17T16:46:16.138Z,77.70
2018-09-17T16:48:46.549Z,81.10
2018-09-17T16:51:16.664Z,87.60
2018-09-17T16:53:46.785Z,89.60
2018-09-17T16:56:16.864Z,90.60
2018-09-17T16:58:47.135Z,92.50
2018-09-17T17:01:17.385Z,94.30
2018-09-17T17:03:47.931Z,98.30
2018-09-17T17:06:18.365Z,99.90
2018-09-17T17:08:48.742Z,99.90
2018-09-17T17:11:19.288Z,99.90
2018-09-17T17:13:49.691Z,99.90
2018-09-17T17:16:20.176Z,99.90
2018-09-17T17:18:50.611Z,99.90
2018-09-17T17:21:20.931Z,99.90
2018-09-17T17:23:51.288Z,99.90
2018-09-17T17:26:21.645Z,99.90
2018-09-17T17:28:52.152Z,99.90
2018-09-17T17:31:22.493Z,99.90
2018-09-17T17:33:52.992Z,99.90
2018-09-17T17:36:23.517Z,99.90
2018-09-17T17:38:53.993Z,99.90
2018-09-17T17:41:24.436Z,99.90
2018-09-17T17:43:55.833Z,99.90
2018-09-17T17:46:28.010Z,99.90
2018-09-17T17:48:58.429Z,99.90
2018-09-17T17:51:29.565Z,99.90
2018-09-17T17:54:01.681Z,99.90
2018-09-17T17:56:37.154Z,99.90
2018-09-17T17:59:07.449Z,99.90
2018-09-17T18:01:39.509Z,99.90
2018-09-17T18:04:11.653Z,99.90
2018-09-17T18:09:13.871Z,99.90
2018-09-17T18:11:44.236Z,99.90
2018-09-17T18:14:15.399Z,99.90
2018-09-17T18:19:15.316Z,99.90
2018-09-17T18:21:46.628Z,99.90
2018-09-17T18:24:25.564Z,99.90
2018-09-17T18:27:02.408Z,99.90
2018-09-17T18:29:32.560Z,99.90
2018-09-17T18:32:09.412Z,99.90
2018-09-17T18:34:44.570Z,99.90
2018-09-17T18:37:20.276Z,99.90
2018-09-17T18:42:26.426Z,99.90
2018-09-17T18:44:57.880Z,99.90
2018-09-17T18:47:29.211Z,99.90
2018-09-17T18:50:00.443Z,99.90
2018-09-17T18:52:36.002Z,99.90
2018-09-17T18:55:06.494Z,99.90
2018-09-17T18:57:37.576Z,99.90
2018-09-17T19:00:14.467Z,99.90
2018-09-17T19:05:25.363Z,99.90
2018-09-17T19:10:26.604Z,99.90
2018-09-17T19:13:00.331Z,99.90
2018-09-17T19:18:15.597Z,99.90
2018-09-17T19:23:34.328Z,99.90
2018-09-17T19:31:17.544Z,99.90
2018-09-17T19:38:52.200Z,99.90
2018-09-17T19:43:57.681Z,99.90
2018-09-17T19:46:33.516Z,99.90
2018-09-17T19:51:38.512Z,99.90
2018-09-17T19:54:09.943Z,99.90
2018-09-17T19:56:40.388Z,99.90
2018-09-17T19:59:15.792Z,99.90
2018-09-17T20:17:40.724Z,99.90
2018-09-17T20:20:10.899Z,99.90
2018-09-17T20:25:10.956Z,99.90
2018-09-17T20:30:11.004Z,99.90
2018-09-17T20:38:39.013Z,99.90
2018-09-17T20:41:09.304Z,99.90
2018-09-17T20:43:39.578Z,99.90
2018-09-17T20:46:09.851Z,99.90
2018-09-17T20:48:40.266Z,99.90
2018-09-17T20:51:10.683Z,99.90
2018-09-17T20:53:41.130Z,99.90
2018-09-17T20:56:11.628Z,99.90
2018-09-17T20:58:42.452Z,99.90
2018-09-17T21:01:13.013Z,99.90
2018-09-17T21:03:43.307Z,99.90
2018-09-17T21:06:13.739Z,99.90
2018-09-17T21:08:44.308Z,99.90
2018-09-17T21:11:14.736Z,99.90
2018-09-17T21:13:45.048Z,99.90
2018-09-17T21:16:15.364Z,99.90
2018-09-17T21:21:15.840Z,99.90
2018-09-17T21:26:16.225Z,99.90
2018-09-17T21:28:46.783Z,99.90
2018-09-17T21:33:46.810Z,99.90
2018-09-17T21:36:17.122Z,99.90
2018-09-17T21:38:47.692Z,99.90
2018-09-17T21:43:47.779Z,99.90
2018-09-17T21:46:18.248Z,99.90
2018-09-17T21:48:48.788Z,99.90
2018-09-17T21:51:19.241Z,99.90
2018-09-17T21:53:49.513Z,99.90
2018-09-17T21:56:19.856Z,99.90
2018-09-17T22:01:19.784Z,99.90
2018-09-17T22:06:20.058Z,99.90
2018-09-17T22:08:50.336Z,99.90
2018-09-17T22:11:20.807Z,99.90
2018-09-17T22:13:51.141Z,99.90
2018-09-17T22:16:21.307Z,99.90
2018-09-17T22:18:51.835Z,99.90
2018-09-17T22:21:22.187Z,99.90
2018-09-17T22:23:52.512Z,99.90
2018-09-17T22:26:22.891Z,99.90
2018-09-17T22:28:53.395Z,99.90
2018-09-17T22:31:23.864Z,99.90
2018-09-17T22:33:54.235Z,99.90
2018-09-17T22:36:24.624Z,99.90
2018-09-17T22:38:55.105Z,99.90
2018-09-17T22:41:25.384Z,99.90
2018-09-17T22:46:25.821Z,99.90
2018-09-17T22:51:25.832Z,99.90
2018-09-17T22:53:56.154Z,99.90
2018-09-17T22:56:26.537Z,99.90
2018-09-17T22:58:56.909Z,99.90
2018-09-17T23:01:27.251Z,99.90
2018-09-17T23:06:27.772Z,99.90
2018-09-17T23:08:58.176Z,99.90
2018-09-17T23:11:28.656Z,99.90
2018-09-17T23:18:58.088Z,99.90
2018-09-17T23:23:58.043Z,99.90
2018-09-17T23:26:28.695Z,99.90
2018-09-17T23:28:59.088Z,99.90
2018-09-17T23:33:59.248Z,99.90
2018-09-17T23:36:29.587Z,99.90
2018-09-17T23:38:59.977Z,99.90
2018-09-17T23:41:30.291Z,99.90
2018-09-17T23:46:30.258Z,99.90
2018-09-17T23:49:00.804Z,99.90
2018-09-17T23:54:01.426Z,99.90
2018-09-17T23:56:31.762Z,99.90
2018-09-17T23:59:02.404Z,99.90
